Time;durP1;ratioP1;P1;durP2;ratioP2;P2;SDS_P1;SDS_P2;PMS_P1;PMS_P2;Temp;Humidity;BMP_temperature;BMP_pressure;BME280_temperature;BME280_humidity;BME280_pressure;Samples;Min_cycle;Max_cycle;Signal;HPM_P1;HPM_P2
2023/04/25 00:02:00;;;;;;;9.38;2.67;;;8.70;60.40;;;;;;5057376;28;20107;-77
2023/04/25 00:04:27;;;;;;;7.78;2.45;;;8.70;61.30;;;;;;5056885;28;20028;-73
2023/04/25 00:06:54;;;;;;;8.50;2.67;;;8.70;61.80;;;;;;5074981;28;20442;-73
2023/04/25 00:09:19;;;;;;;5.78;2.45;;;8.70;63.40;;;;;;5074625;28;20021;-74
2023/04/25 00:11:45;;;;;;;5.95;2.33;;;8.60;62.70;;;;;;5075082;28;20032;-73
2023/04/25 00:14:10;;;;;;;5.90;2.90;;;8.50;64.50;;;;;;5073665;28;20107;-73
2023/04/25 00:16:36;;;;;;;7.40;2.90;;;8.50;65.20;;;;;;5074860;28;20481;-73
2023/04/25 00:19:02;;;;;;;8.32;2.38;;;8.40;65.40;;;;;;5074592;28;20071;-73
2023/04/25 00:21:28;;;;;;;8.80;3.28;;;8.30;65.60;;;;;;5074829;28;20077;-73
2023/04/25 00:23:55;;;;;;;6.43;2.63;;;8.20;66.20;;;;;;5075040;28;20391;-73
2023/04/25 00:26:20;;;;;;;3.33;2.38;;;8.20;66.40;;;;;;5056748;28;20484;-74
2023/04/25 00:28:47;;;;;;;5.30;2.50;;;8.20;65.60;;;;;;5074799;28;20029;-73
2023/04/25 00:31:13;;;;;;;5.07;2.17;;;8.20;66.00;;;;;;5074685;28;20107;-74
2023/04/25 00:33:38;;;;;;;7.43;2.58;;;8.30;65.10;;;;;;5074677;28;20514;-73
2023/04/25 00:36:04;;;;;;;5.60;2.55;;;8.20;65.50;;;;;;5074496;28;20118;-74
2023/04/25 00:38:30;;;;;;;7.60;2.33;;;8.20;65.10;;;;;;5074443;28;20029;-73
2023/04/25 00:40:56;;;;;;;9.68;2.20;;;8.20;65.40;;;;;;5074453;28;20121;-77
2023/04/25 00:43:22;;;;;;;5.35;2.20;;;8.20;65.70;;;;;;5074577;28;20074;-74
2023/04/25 00:45:49;;;;;;;8.07;2.88;;;8.20;66.40;;;;;;5056287;28;20032;-74
2023/04/25 00:48:15;;;;;;;5.60;2.10;;;8.10;67.20;;;;;;5074405;28;20035;-74
2023/04/25 00:50:41;;;;;;;7.95;2.83;;;8.10;67.70;;;;;;5074380;28;20528;-73
2023/04/25 00:53:07;;;;;;;5.15;2.40;;;8.10;68.30;;;;;;5074273;28;20081;-73
2023/04/25 00:55:34;;;;;;;7.53;3.03;;;8.00;68.00;;;;;;5074191;28;20028;-74
2023/04/25 00:58:00;;;;;;;6.40;2.90;;;8.00;67.50;;;;;;5074103;28;20052;-74
2023/04/25 01:00:25;;;;;;;5.35;2.35;;;8.00;67.80;;;;;;5074225;28;20511;-77
2023/04/25 01:02:51;;;;;;;5.90;2.10;;;8.00;67.60;;;;;;5074213;28;20024;-73
2023/04/25 01:05:20;;;;;;;4.30;2.22;;;8.00;67.60;;;;;;5074219;28;20031;-74
2023/04/25 01:07:47;;;;;;;11.20;2.95;;;8.20;67.80;;;;;;5074076;28;20024;-74
2023/04/25 01:10:12;;;;;;;8.30;2.33;;;8.20;67.30;;;;;;5074034;28;20035;-73
2023/04/25 01:12:38;;;;;;;7.47;2.28;;;8.30;67.80;;;;;;5073888;28;20020;-73
2023/04/25 01:15:04;;;;;;;3.72;2.35;;;8.30;66.90;;;;;;5073976;28;20028;-74
2023/04/25 01:17:31;;;;;;;4.28;2.40;;;8.40;66.50;;;;;;5073774;28;20035;-74
2023/04/25 01:19:56;;;;;;;12.85;2.85;;;8.50;65.70;;;;;;5073792;28;20082;-74
2023/04/25 01:22:22;;;;;;;7.50;2.40;;;8.40;65.50;;;;;;5073473;28;20427;-74
2023/04/25 01:24:48;;;;;;;4.90;2.22;;;8.40;66.10;;;;;;5055428;28;20032;-74
2023/04/25 01:27:15;;;;;;;6.68;2.08;;;8.50;66.40;;;;;;5073743;28;20032;-74
2023/04/25 01:29:40;;;;;;;6.85;2.50;;;8.50;66.30;;;;;;5073609;28;20024;-74
2023/04/25 01:32:07;;;;;;;5.38;2.53;;;8.50;68.40;;;;;;5073546;28;20546;-74
2023/04/25 01:34:32;;;;;;;8.27;2.83;;;8.40;69.20;;;;;;5073576;28;20039;-73
2023/04/25 01:37:01;;;;;;;4.53;2.80;;;8.30;69.50;;;;;;5073446;28;20044;-74
2023/04/25 01:39:27;;;;;;;11.05;2.63;;;8.20;70.40;;;;;;5073097;28;20028;-72
2023/04/25 01:41:53;;;;;;;7.55;2.78;;;8.10;70.80;;;;;;5073249;28;20028;-73
2023/04/25 01:44:18;;;;;;;4.13;2.75;;;7.90;71.60;;;;;;5073409;28;20047;-73
2023/04/25 01:46:44;;;;;;;5.85;2.80;;;7.90;71.80;;;;;;5073438;28;20036;-72
2023/04/25 01:49:09;;;;;;;5.70;2.47;;;7.90;72.40;;;;;;5073270;28;20036;-73
2023/04/25 01:51:35;;;;;;;3.65;2.25;;;7.90;72.90;;;;;;5073253;28;20016;-73
2023/04/25 01:54:01;;;;;;;8.18;2.55;;;7.90;72.50;;;;;;5055193;28;20032;-73
2023/04/25 01:56:36;;;;;;;4.75;2.55;;;8.00;72.30;;;;;;5073313;28;20024;-73
2023/04/25 01:59:03;;;;;;;4.35;2.55;;;8.00;72.10;;;;;;5074340;28;20369;-74
2023/04/25 02:01:28;;;;;;;6.40;2.70;;;8.10;72.00;;;;;;5080357;28;20034;-73
2023/04/25 02:03:54;;;;;;;5.50;2.80;;;8.10;72.50;;;;;;5073837;28;20028;-72
2023/04/25 02:06:19;;;;;;;4.30;2.63;;;8.10;71.00;;;;;;5073380;28;20017;-74
2023/04/25 02:08:45;;;;;;;7.13;2.88;;;8.00;71.40;;;;;;5073116;28;20028;-74
2023/04/25 02:11:10;;;;;;;4.10;2.35;;;8.00;72.70;;;;;;5073068;28;20100;-74
2023/04/25 02:13:36;;;;;;;7.47;2.63;;;7.90;71.60;;;;;;5072998;28;20338;-74
2023/04/25 02:16:01;;;;;;;3.67;2.28;;;7.80;70.90;;;;;;5072956;28;20020;-74
2023/04/25 02:18:27;;;;;;;7.22;2.45;;;7.70;71.10;;;;;;5072942;28;20106;-75
2023/04/25 02:20:53;;;;;;;3.65;2.08;;;7.80;71.40;;;;;;5072998;28;20040;-74
2023/04/25 02:23:19;;;;;;;6.07;2.38;;;7.80;71.20;;;;;;5072655;28;20145;-75
2023/04/25 02:25:44;;;;;;;3.60;2.03;;;7.70;71.10;;;;;;5072900;28;20021;-75
2023/04/25 02:28:10;;;;;;;3.67;1.95;;;7.70;71.10;;;;;;5072934;28;20025;-75
2023/04/25 02:30:36;;;;;;;4.50;2.35;;;7.80;70.80;;;;;;5072773;28;20051;-75
2023/04/25 02:33:01;;;;;;;5.20;2.58;;;7.70;70.80;;;;;;5066076;28;20025;-75
2023/04/25 02:35:27;;;;;;;6.63;2.30;;;7.70;70.60;;;;;;5052593;28;20052;-74
2023/04/25 02:37:52;;;;;;;6.03;2.50;;;7.70;70.40;;;;;;5055244;28;20036;-75
2023/04/25 02:40:18;;;;;;;4.10;2.20;;;7.70;69.90;;;;;;5056770;28;20112;-74
2023/04/25 02:42:45;;;;;;;4.45;2.05;;;7.60;70.50;;;;;;5038389;28;20033;-75
2023/04/25 02:45:11;;;;;;;7.82;2.13;;;7.60;69.50;;;;;;5056687;28;20021;-74
2023/04/25 02:47:37;;;;;;;3.83;2.40;;;7.70;68.30;;;;;;5056595;28;20029;-74
2023/04/25 02:50:03;;;;;;;4.03;1.77;;;7.60;67.90;;;;;;5056607;28;20048;-74
2023/04/25 02:52:29;;;;;;;5.30;2.20;;;7.60;67.80;;;;;;5038705;28;20071;-75
2023/04/25 02:54:54;;;;;;;6.32;2.53;;;7.60;66.20;;;;;;5056549;28;20032;-74
2023/04/25 02:57:20;;;;;;;3.70;2.15;;;7.50;66.30;;;;;;5056473;28;20044;-75
2023/04/25 02:59:45;;;;;;;5.03;1.88;;;7.40;66.90;;;;;;5056251;28;20531;-75
2023/04/25 03:02:11;;;;;;;6.47;2.35;;;7.40;66.30;;;;;;5056309;28;20112;-75
2023/04/25 03:04:36;;;;;;;3.33;1.70;;;7.40;66.60;;;;;;5056308;28;20053;-75
2023/04/25 03:07:02;;;;;;;4.22;2.17;;;7.50;66.90;;;;;;5056274;28;20048;-75
2023/04/25 03:09:27;;;;;;;3.65;1.85;;;7.40;67.20;;;;;;5056128;28;20033;-75
2023/04/25 03:11:53;;;;;;;5.15;2.58;;;7.50;67.70;;;;;;5056293;28;20446;-74
2023/04/25 03:14:19;;;;;;;4.30;2.00;;;7.50;68.00;;;;;;5037992;28;20028;-73
2023/04/25 03:16:44;;;;;;;6.40;2.35;;;7.50;68.00;;;;;;5056020;28;20040;-73
2023/04/25 03:19:10;;;;;;;3.42;1.90;;;7.60;68.20;;;;;;5055608;28;20122;-74
2023/04/25 03:21:36;;;;;;;4.40;2.10;;;7.60;68.50;;;;;;5055902;28;20021;-74
2023/04/25 03:24:03;;;;;;;6.13;2.63;;;7.60;68.20;;;;;;5055779;28;20035;-73
2023/04/25 03:26:29;;;;;;;5.07;2.15;;;7.60;69.20;;;;;;5055850;28;20021;-74
2023/04/25 03:28:55;;;;;;;5.72;2.03;;;7.60;69.50;;;;;;5055733;28;20385;-74
2023/04/25 03:31:20;;;;;;;3.63;1.95;;;7.60;69.80;;;;;;5055785;28;20441;-73
2023/04/25 03:33:46;;;;;;;3.33;2.13;;;7.60;70.20;;;;;;5055717;28;20147;-73
2023/04/25 03:36:12;;;;;;;4.05;2.45;;;7.60;70.50;;;;;;5055386;28;20383;-73
2023/04/25 03:38:37;;;;;;;4.97;2.60;;;7.60;70.90;;;;;;5055561;28;20072;-74
2023/04/25 03:41:03;;;;;;;8.52;2.75;;;7.50;71.10;;;;;;5055498;28;20047;-74
2023/04/25 03:43:29;;;;;;;7.18;2.95;;;7.50;72.40;;;;;;5055404;28;20056;-73
2023/04/25 03:45:54;;;;;;;10.27;4.10;;;7.50;71.70;;;;;;5055375;28;20028;-73
2023/04/25 03:48:22;;;;;;;7.47;3.50;;;7.40;72.00;;;;;;5055132;28;20029;-73
2023/04/25 03:50:47;;;;;;;3.95;2.53;;;7.50;72.30;;;;;;5055271;28;20096;-73
2023/04/25 03:53:13;;;;;;;4.00;2.10;;;7.40;72.40;;;;;;5055265;28;20512;-73
2023/04/25 03:55:38;;;;;;;6.45;2.45;;;7.40;72.60;;;;;;5036956;28;20021;-73
2023/04/25 03:58:04;;;;;;;7.68;2.35;;;7.40;73.10;;;;;;5055046;28;20070;-75
2023/04/25 04:00:30;;;;;;;6.95;2.55;;;7.30;73.40;;;;;;5055185;28;20037;-73
2023/04/25 04:02:55;;;;;;;7.00;2.53;;;7.30;73.50;;;;;;5055169;28;20053;-74
2023/04/25 04:05:22;;;;;;;5.65;2.38;;;7.20;73.70;;;;;;5055280;28;20025;-75
2023/04/25 04:07:47;;;;;;;8.13;2.55;;;7.20;74.10;;;;;;5054939;28;20021;-73
2023/04/25 04:10:13;;;;;;;7.13;2.53;;;7.10;74.90;;;;;;5054741;28;20079;-73
2023/04/25 04:12:38;;;;;;;5.60;2.80;;;7.10;74.80;;;;;;5054895;28;20029;-73
2023/04/25 04:15:05;;;;;;;3.63;2.35;;;7.00;74.40;;;;;;5054994;28;20021;-73
2023/04/25 04:17:31;;;;;;;6.72;2.85;;;6.90;74.90;;;;;;5054938;28;20049;-73
2023/04/25 04:19:57;;;;;;;3.70;2.22;;;6.80;74.80;;;;;;5054812;28;20389;-73
2023/04/25 04:22:23;;;;;;;4.28;2.15;;;6.90;75.20;;;;;;5054733;28;20021;-73
2023/04/25 04:24:49;;;;;;;5.50;2.45;;;6.80;75.10;;;;;;5054831;28;20033;-73
2023/04/25 04:27:18;;;;;;;6.13;2.78;;;6.90;75.10;;;;;;5054523;28;20017;-74
2023/04/25 04:29:43;;;;;;;5.32;2.70;;;6.90;75.00;;;;;;5054743;28;20025;-74
2023/04/25 04:32:09;;;;;;;4.32;2.20;;;6.90;75.00;;;;;;5059386;28;20443;-75
2023/04/25 04:34:35;;;;;;;7.57;2.72;;;6.90;74.70;;;;;;5054696;28;20061;-74
2023/04/25 04:37:01;;;;;;;4.95;2.75;;;6.90;74.90;;;;;;5054326;28;20496;-73
2023/04/25 04:39:26;;;;;;;5.32;3.08;;;6.90;74.90;;;;;;5054462;28;20413;-73
2023/04/25 04:41:52;;;;;;;4.95;2.53;;;6.90;74.80;;;;;;5054107;28;20025;-74
2023/04/25 04:44:17;;;;;;;4.13;2.80;;;7.00;74.50;;;;;;5054416;28;20063;-73
2023/04/25 04:46:44;;;;;;;4.75;2.20;;;7.00;74.40;;;;;;5054334;28;20025;-73
2023/04/25 04:49:10;;;;;;;5.32;2.72;;;7.10;74.20;;;;;;5054375;28;20576;-73
2023/04/25 04:51:36;;;;;;;7.43;2.33;;;7.20;73.90;;;;;;5054578;28;20020;-74
2023/04/25 04:54:03;;;;;;;6.50;2.53;;;7.20;73.70;;;;;;5036400;28;20025;-73
2023/04/25 04:56:30;;;;;;;8.90;5.18;;;7.20;73.60;;;;;;5054296;28;20451;-74
2023/04/25 04:58:56;;;;;;;11.23;4.18;;;7.30;73.50;;;;;;5053923;28;20017;-74
2023/04/25 05:01:22;;;;;;;6.22;3.33;;;7.30;74.00;;;;;;5053766;28;20035;-74
2023/04/25 05:03:48;;;;;;;3.83;2.60;;;7.30;74.00;;;;;;5054138;28;20108;-74
2023/04/25 05:06:13;;;;;;;13.65;7.90;;;7.40;74.10;;;;;;5053646;28;20500;-74
2023/04/25 05:08:39;;;;;;;13.40;6.38;;;7.40;73.30;;;;;;5053835;28;20052;-74
2023/04/25 05:11:05;;;;;;;7.72;4.63;;;7.40;73.40;;;;;;5053826;28;20028;-74
2023/04/25 05:13:31;;;;;;;6.88;4.00;;;7.40;73.60;;;;;;5053896;28;20127;-75
2023/04/25 05:15:56;;;;;;;10.30;4.45;;;7.40;73.70;;;;;;5054031;28;20033;-74
2023/04/25 05:18:22;;;;;;;4.75;3.05;;;7.40;73.60;;;;;;5057380;28;20025;-76
2023/04/25 05:20:47;;;;;;;5.43;3.08;;;7.50;73.70;;;;;;5057884;28;20170;-73
2023/04/25 05:23:13;;;;;;;6.78;3.15;;;7.50;73.90;;;;;;5053469;28;20017;-74
2023/04/25 05:25:39;;;;;;;8.23;3.72;;;7.60;73.80;;;;;;5053239;28;20064;-73
2023/04/25 05:28:05;;;;;;;5.25;3.80;;;7.60;73.70;;;;;;5035258;28;20088;-75
2023/04/25 05:30:31;;;;;;;5.65;3.47;;;7.70;73.60;;;;;;5053009;28;20032;-78
2023/04/25 05:32:56;;;;;;;10.90;3.85;;;7.70;73.50;;;;;;5056431;28;20040;-74
2023/04/25 05:35:22;;;;;;;6.10;3.85;;;7.80;73.30;;;;;;5055817;28;20131;-73
2023/04/25 05:37:47;;;;;;;6.32;3.17;;;7.80;73.00;;;;;;5052982;28;20099;-73
2023/04/25 05:40:13;;;;;;;5.88;3.42;;;7.90;72.70;;;;;;5052839;28;20095;-74
2023/04/25 05:42:39;;;;;;;6.13;3.17;;;8.00;72.40;;;;;;5053041;28;20385;-73
2023/04/25 05:45:05;;;;;;;9.43;3.22;;;8.00;72.20;;;;;;5035284;28;20028;-74
2023/04/25 05:47:31;;;;;;;8.52;3.90;;;8.10;73.00;;;;;;5053079;28;20021;-74
2023/04/25 05:49:56;;;;;;;6.28;3.63;;;8.10;72.40;;;;;;5053104;28;20036;-74
2023/04/25 05:52:22;;;;;;;8.65;3.70;;;8.20;71.70;;;;;;5052906;28;20025;-74
2023/04/25 05:54:48;;;;;;;7.40;3.10;;;8.20;71.60;;;;;;5053130;28;20025;-74
2023/04/25 05:57:24;;;;;;;7.07;3.55;;;8.30;71.50;;;;;;5054270;28;20466;-76
2023/04/25 05:59:51;;;;;;;10.23;3.80;;;8.30;71.00;;;;;;5058266;28;20110;-77
2023/04/25 06:02:17;;;;;;;9.80;3.90;;;8.20;70.80;;;;;;5053237;28;20135;-79
2023/04/25 06:04:43;;;;;;;7.82;3.60;;;8.20;70.70;;;;;;5035220;28;20362;-78
2023/04/25 06:07:08;;;;;;;9.15;4.38;;;8.20;70.50;;;;;;5053017;28;20024;-77
2023/04/25 06:09:34;;;;;;;11.68;4.53;;;8.10;70.70;;;;;;5053129;28;20032;-77
2023/04/25 06:12:00;;;;;;;8.13;4.97;;;8.10;70.50;;;;;;5053238;28;20469;-76
2023/04/25 06:14:26;;;;;;;9.85;5.30;;;8.00;70.50;;;;;;5053218;28;20025;-75
2023/04/25 06:16:52;;;;;;;14.05;6.03;;;8.00;71.00;;;;;;5053046;28;20028;-74
2023/04/25 06:19:17;;;;;;;10.95;5.57;;;7.90;71.80;;;;;;5052751;28;20086;-75
2023/04/25 06:21:44;;;;;;;9.85;4.93;;;7.80;72.30;;;;;;5052860;28;20021;-74
2023/04/25 06:24:10;;;;;;;11.38;5.55;;;7.80;72.60;;;;;;5052642;28;20040;-74
2023/04/25 06:26:35;;;;;;;11.05;5.20;;;7.80;72.50;;;;;;5052654;28;20017;-74
2023/04/25 06:29:01;;;;;;;11.63;5.15;;;7.80;72.20;;;;;;5052543;28;20040;-74
2023/04/25 06:31:26;;;;;;;9.30;5.00;;;7.90;73.40;;;;;;5035087;28;20112;-74
2023/04/25 06:33:54;;;;;;;6.07;4.50;;;7.80;72.60;;;;;;5052766;28;20028;-73
2023/04/25 06:36:24;;;;;;;8.05;4.72;;;7.80;72.00;;;;;;5066665;28;20071;-74
2023/04/25 06:38:50;;;;;;;7.45;4.53;;;7.90;71.70;;;;;;5073115;28;20064;-76
2023/04/25 06:41:16;;;;;;;6.38;3.95;;;7.90;71.70;;;;;;5073351;28;20051;-76
2023/04/25 06:43:41;;;;;;;8.00;4.43;;;8.00;71.50;;;;;;5073155;28;20037;-77
2023/04/25 06:46:07;;;;;;;8.73;3.38;;;8.20;71.10;;;;;;5073055;28;20059;-74
2023/04/25 06:48:33;;;;;;;6.45;3.53;;;8.30;71.00;;;;;;5055129;28;20154;-73
2023/04/25 06:50:59;;;;;;;5.90;3.15;;;8.40;70.50;;;;;;5054661;28;20055;-76
2023/04/25 06:53:24;;;;;;;5.18;2.90;;;8.50;69.50;;;;;;5054854;28;20017;-74
2023/04/25 06:55:50;;;;;;;4.47;2.60;;;8.50;68.30;;;;;;5054554;28;20059;-75
2023/04/25 06:58:15;;;;;;;6.90;3.70;;;8.60;68.50;;;;;;5054600;28;20021;-77
2023/04/25 07:00:41;;;;;;;10.02;3.42;;;8.60;68.60;;;;;;5054729;28;20047;-76
2023/04/25 07:03:07;;;;;;;5.10;2.90;;;8.70;69.00;;;;;;5054599;28;20017;-76
2023/04/25 07:05:33;;;;;;;6.05;2.85;;;8.80;68.80;;;;;;5072568;28;20035;-76
2023/04/25 07:08:00;;;;;;;6.28;2.60;;;8.80;68.80;;;;;;5055091;28;20021;-77
2023/04/25 07:10:25;;;;;;;5.35;2.28;;;8.80;68.50;;;;;;5054594;28;20480;-78
2023/04/25 07:12:52;;;;;;;7.20;2.40;;;8.90;68.30;;;;;;5055013;28;20125;-78
2023/04/25 07:15:18;;;;;;;7.22;2.72;;;8.90;68.10;;;;;;5054755;28;20031;-77
2023/04/25 07:17:44;;;;;;;8.50;3.20;;;9.00;67.80;;;;;;5071810;28;20459;-77
2023/04/25 07:20:10;;;;;;;4.63;2.55;;;9.00;67.60;;;;;;5054827;28;20040;-77
2023/04/25 07:22:36;;;;;;;6.32;2.70;;;9.00;67.70;;;;;;5038551;28;20024;-77
2023/04/25 07:25:01;;;;;;;9.93;3.08;;;9.10;67.70;;;;;;5063461;28;20039;-75
2023/04/25 07:27:27;;;;;;;9.88;4.00;;;9.10;68.30;;;;;;5058143;28;20070;-72
2023/04/25 07:29:53;;;;;;;7.68;2.78;;;9.40;83.00;;;;;;5057852;28;20021;-72
2023/04/25 07:32:19;;;;;;;7.60;3.03;;;9.60;78.00;;;;;;5058468;28;20052;-72
2023/04/25 07:34:45;;;;;;;6.85;2.97;;;9.70;68.20;;;;;;5057967;28;20032;-72
2023/04/25 07:37:11;;;;;;;7.78;3.55;;;9.60;68.40;;;;;;5082074;28;20066;-73
2023/04/25 07:39:37;;;;;;;9.98;3.15;;;9.40;69.10;;;;;;5064867;28;20040;-73
2023/04/25 07:42:03;;;;;;;6.28;2.22;;;9.00;69.00;;;;;;5083446;28;20024;-74
2023/04/25 07:44:30;;;;;;;10.60;3.13;;;8.80;67.90;;;;;;5068592;28;20025;-75
2023/04/25 07:46:57;;;;;;;6.63;2.83;;;8.40;70.50;;;;;;5077891;28;20067;-78
2023/04/25 07:49:22;;;;;;;11.95;4.15;;;8.20;71.30;;;;;;5072825;28;20389;-76
2023/04/25 07:51:48;;;;;;;13.65;7.28;;;8.10;70.50;;;;;;5058047;28;20027;-74
2023/04/25 07:54:16;;;;;;;8.15;2.97;;;8.00;71.70;;;;;;5057766;28;20032;-74
2023/04/25 07:56:42;;;;;;;8.02;2.58;;;8.00;72.20;;;;;;5057850;28;20491;-77
2023/04/25 07:59:08;;;;;;;7.78;2.80;;;7.90;71.90;;;;;;5057377;28;20037;-74
2023/04/25 08:01:34;;;;;;;5.78;2.50;;;7.90;73.10;;;;;;5057414;28;20021;-76
2023/04/25 08:03:59;;;;;;;5.10;2.88;;;7.80;74.50;;;;;;5057897;28;20041;-80
2023/04/25 08:06:25;;;;;;;6.63;2.95;;;7.80;74.50;;;;;;5075556;28;20438;-80
2023/04/25 08:08:52;;;;;;;4.40;2.40;;;7.80;74.40;;;;;;5075794;28;20017;-78
2023/04/25 08:11:18;;;;;;;4.68;2.15;;;7.70;74.00;;;;;;5057247;28;20115;-76
2023/04/25 08:13:44;;;;;;;4.07;1.80;;;7.70;73.90;;;;;;5056875;28;20047;-75
2023/04/25 08:16:09;;;;;;;4.85;2.10;;;7.60;72.80;;;;;;5056713;28;20028;-76
2023/04/25 08:18:35;;;;;;;2.42;2.00;;;7.50;73.70;;;;;;5074951;28;20032;-76
2023/04/25 08:21:00;;;;;;;5.10;2.35;;;7.30;74.80;;;;;;5057326;28;20460;-77
2023/04/25 08:23:26;;;;;;;5.28;3.00;;;7.30;76.80;;;;;;5057732;28;20385;-78
2023/04/25 08:25:51;;;;;;;5.15;2.05;;;7.30;77.80;;;;;;5057582;28;20021;-76
2023/04/25 08:28:17;;;;;;;3.53;1.40;;;7.10;78.80;;;;;;5074535;28;20603;-77
2023/04/25 08:30:43;;;;;;;2.90;1.75;;;6.90;76.70;;;;;;5057040;28;20500;-76
2023/04/25 08:33:10;;;;;;;6.90;1.55;;;6.60;77.40;;;;;;5056966;28;20101;-76
2023/04/25 08:35:39;;;;;;;2.38;1.40;;;6.40;78.70;;;;;;5052545;28;20049;-77
2023/04/25 08:38:06;;;;;;;1.90;1.60;;;6.20;80.30;;;;;;5052772;28;20120;-79
2023/04/25 08:40:37;;;;;;;3.13;1.70;;;6.10;80.40;;;;;;5053479;28;20576;-76
2023/04/25 08:43:04;;;;;;;3.22;2.20;;;6.00;80.60;;;;;;5037098;28;20036;-79
2023/04/25 08:45:31;;;;;;;2.35;1.80;;;6.00;82.20;;;;;;5054486;28;20037;-78
2023/04/25 08:48:00;;;;;;;2.00;1.27;;;5.90;81.60;;;;;;5056658;28;20044;-77
2023/04/25 08:50:30;;;;;;;4.05;1.50;;;5.90;80.20;;;;;;5053701;28;20021;-79
2023/04/25 08:53:03;;;;;;;1.88;1.50;;;5.80;80.40;;;;;;5053702;28;20028;-78
2023/04/25 08:55:30;;;;;;;2.05;1.42;;;5.80;80.70;;;;;;5054782;28;20119;-78
2023/04/25 08:57:57;;;;;;;1.50;1.20;;;5.70;79.60;;;;;;5054069;28;20095;-78
2023/04/25 09:00:23;;;;;;;3.35;1.80;;;5.60;80.80;;;;;;5037138;28;20472;-76
2023/04/25 09:02:49;;;;;;;2.70;2.05;;;5.60;80.20;;;;;;5053231;28;20025;-76
2023/04/25 09:05:15;;;;;;;3.88;2.20;;;5.60;79.00;;;;;;5036436;28;20033;-76
2023/04/25 09:07:42;;;;;;;3.55;1.90;;;5.50;79.50;;;;;;5036214;28;20029;-75
2023/04/25 09:10:09;;;;;;;4.05;2.38;;;5.30;79.30;;;;;;5036757;28;20082;-77
2023/04/25 09:12:35;;;;;;;5.03;2.15;;;5.10;81.20;;;;;;5053035;28;20078;-77
2023/04/25 09:15:05;;;;;;;3.53;2.13;;;5.10;81.30;;;;;;5053962;28;20036;-75
2023/04/25 09:17:31;;;;;;;4.65;2.55;;;5.10;80.70;;;;;;5052878;28;20055;-77
2023/04/25 09:20:06;;;;;;;2.88;1.90;;;5.10;81.00;;;;;;5052248;28;20052;-76
2023/04/25 09:22:31;;;;;;;2.70;2.30;;;5.00;81.90;;;;;;5052570;28;20167;-79
2023/04/25 09:25:02;;;;;;;4.40;2.25;;;4.70;82.80;;;;;;5052603;28;20533;-77
2023/04/25 09:27:27;;;;;;;4.15;2.03;;;4.80;82.70;;;;;;5052270;28;20021;-78
2023/04/25 09:30:01;;;;;;;2.45;1.60;;;4.90;82.40;;;;;;5054298;28;20048;-77
2023/04/25 09:32:27;;;;;;;2.33;1.60;;;4.80;81.20;;;;;;5047494;28;20025;-78
2023/04/25 09:34:57;;;;;;;1.80;1.48;;;4.80;80.70;;;;;;5056141;28;20024;-77
2023/04/25 09:37:28;;;;;;;1.88;1.63;;;4.80;80.70;;;;;;5055499;28;20028;-78
2023/04/25 09:40:00;;;;;;;1.40;1.00;;;4.90;81.20;;;;;;5038680;28;20047;-77
2023/04/25 09:42:28;;;;;;;2.28;1.02;;;4.80;80.10;;;;;;5055331;28;20017;-76
2023/04/25 09:44:58;;;;;;;0.60;0.60;;;4.60;82.20;;;;;;5055677;28;20025;-77
2023/04/25 09:47:28;;;;;;;0.60;0.43;;;4.70;81.30;;;;;;5055801;28;20078;-74
2023/04/25 09:49:55;;;;;;;1.73;0.90;;;4.70;80.90;;;;;;5055728;28;20021;-75
2023/04/25 09:52:22;;;;;;;0.90;0.50;;;4.70;80.90;;;;;;5055480;28;20095;-81
2023/04/25 09:54:49;;;;;;;0.65;0.60;;;4.80;81.00;;;;;;5073549;28;20027;-75
2023/04/25 09:57:20;;;;;;;0.85;0.63;;;4.90;80.80;;;;;;5072530;28;20024;-79
2023/04/25 09:59:48;;;;;;;0.82;0.50;;;5.00;80.20;;;;;;5055639;28;20032;-79
2023/04/25 10:02:23;;;;;;;0.65;0.65;;;5.10;79.60;;;;;;5054654;28;20516;-75
2023/04/25 10:04:52;;;;;;;0.98;0.77;;;5.20;78.80;;;;;;5052264;28;20040;-76
2023/04/25 10:07:21;;;;;;;1.88;0.82;;;5.20;79.70;;;;;;5055473;28;20027;-75
2023/04/25 10:09:55;;;;;;;1.52;0.77;;;5.10;78.90;;;;;;5055949;28;20020;-75
2023/04/25 10:12:22;;;;;;;2.13;1.08;;;5.20;79.90;;;;;;5039646;28;20028;-75
2023/04/25 10:14:48;;;;;;;1.38;1.02;;;5.40;80.50;;;;;;5055595;28;20125;-74
2023/04/25 10:17:14;;;;;;;2.63;1.45;;;5.50;79.70;;;;;;5054741;28;20021;-76
2023/04/25 10:19:40;;;;;;;3.50;1.52;;;5.70;79.50;;;;;;5038320;28;20043;-75
2023/04/25 10:22:25;;;;;;;3.25;1.83;;;5.90;79.50;;;;;;5055251;28;20025;-77
2023/04/25 10:24:56;;;;;;;4.55;2.20;;;6.20;79.80;;;;;;5073156;28;20063;-75
2023/04/25 10:27:21;;;;;;;1.80;1.40;;;6.50;79.40;;;;;;5055283;28;20021;-77
2023/04/25 10:30:14;;;;;;;2.53;1.00;;;6.90;78.40;;;;;;5054781;28;20036;-78
2023/04/25 10:32:41;;;;;;;1.60;0.50;;;7.30;77.20;;;;;;5054621;28;20435;-77
2023/04/25 10:35:24;;;;;;;0.30;0.30;;;7.70;75.50;;;;;;5053673;28;20046;-77
2023/04/25 10:38:13;;;;;;;0.95;0.47;;;7.90;74.00;;;;;;5071133;28;20127;-76
2023/04/25 10:40:39;;;;;;;0.60;0.60;;;8.10;73.00;;;;;;5052315;28;20032;-75
2023/04/25 10:43:34;;;;;;;1.30;0.80;;;8.20;71.80;;;;;;5053822;28;20067;-76
2023/04/25 10:46:02;;;;;;;1.10;0.43;;;8.20;71.80;;;;;;5037761;28;20030;-77
2023/04/25 10:48:30;;;;;;;0.80;0.52;;;8.30;72.30;;;;;;5071692;28;20112;-75
2023/04/25 10:51:15;;;;;;;1.42;1.00;;;8.30;72.10;;;;;;5053566;28;20096;-78
2023/04/25 10:53:43;;;;;;;1.02;0.90;;;8.30;72.00;;;;;;5054192;28;20032;-80
2023/04/25 10:56:22;;;;;;;2.45;1.20;;;8.50;72.80;;;;;;5053129;28;20043;-76
2023/04/25 10:58:49;;;;;;;1.40;0.63;;;8.60;72.70;;;;;;5072176;28;20438;-78
2023/04/25 11:01:19;;;;;;;0.57;0.52;;;8.70;71.80;;;;;;5074911;28;20088;-75
2023/04/25 11:03:50;;;;;;;2.42;1.23;;;8.90;71.20;;;;;;5075616;28;20031;-77
2023/04/25 11:06:38;;;;;;;3.88;1.95;;;8.90;70.80;;;;;;5057459;28;20154;-78
2023/04/25 11:09:12;;;;;;;2.92;1.02;;;9.00;70.60;;;;;;5074258;28;20042;-75
2023/04/25 11:11:38;;;;;;;7.53;3.60;;;9.00;70.60;;;;;;5055082;28;20571;-79
2023/04/25 11:14:05;;;;;;;7.63;3.40;;;9.00;70.60;;;;;;5075014;28;20052;-75
2023/04/25 11:16:32;;;;;;;5.07;2.65;;;8.90;71.70;;;;;;5041284;28;20112;-76
2023/04/25 11:18:58;;;;;;;2.97;2.05;;;8.90;72.00;;;;;;5075629;28;20027;-79
2023/04/25 11:21:26;;;;;;;1.05;0.70;;;8.70;73.10;;;;;;5057976;28;20052;-80
2023/04/25 11:23:51;;;;;;;2.92;1.02;;;8.60;73.80;;;;;;5057764;28;20091;-77
2023/04/25 11:26:19;;;;;;;2.38;1.90;;;8.50;75.50;;;;;;5058320;28;20035;-80
2023/04/25 11:28:46;;;;;;;1.77;1.10;;;8.40;75.40;;;;;;5057874;28;20111;-75
2023/04/25 11:31:12;;;;;;;1.85;1.10;;;8.30;75.60;;;;;;5058045;28;20388;-76
2023/04/25 11:33:40;;;;;;;1.80;0.75;;;8.30;75.10;;;;;;5058365;28;20024;-75
2023/04/25 11:36:09;;;;;;;1.52;1.05;;;8.20;75.60;;;;;;5059082;28;20045;-75
2023/04/25 11:38:35;;;;;;;1.02;0.80;;;8.40;75.40;;;;;;5054696;28;20124;-76
2023/04/25 11:41:00;;;;;;;1.33;0.80;;;8.60;75.40;;;;;;5053818;28;20107;-76
2023/04/25 11:43:33;;;;;;;0.90;0.70;;;8.60;76.00;;;;;;5054778;28;20025;-76
2023/04/25 11:45:58;;;;;;;1.05;0.50;;;8.60;75.60;;;;;;5055448;28;20497;-75
2023/04/25 11:48:24;;;;;;;2.38;0.80;;;8.50;75.10;;;;;;5053788;28;20059;-76
2023/04/25 11:50:50;;;;;;;1.92;1.40;;;8.50;75.60;;;;;;5054059;28;20028;-75
2023/04/25 11:53:18;;;;;;;1.65;1.27;;;8.40;76.20;;;;;;5037233;28;20393;-76
2023/04/25 11:55:43;;;;;;;1.00;0.90;;;8.60;76.30;;;;;;5053820;28;20499;-75
2023/04/25 11:58:09;;;;;;;0.80;0.80;;;8.70;76.00;;;;;;5053099;28;20065;-75
2023/04/25 12:00:34;;;;;;;1.10;0.85;;;8.80;77.10;;;;;;5054016;28;20056;-76
2023/04/25 12:03:02;;;;;;;5.78;1.80;;;9.00;76.10;;;;;;5053895;28;20025;-76
2023/04/25 12:05:30;;;;;;;6.55;2.55;;;9.10;75.50;;;;;;5053448;28;20052;-76
2023/04/25 12:07:56;;;;;;;1.77;1.20;;;9.30;75.40;;;;;;5053387;28;20025;-76
2023/04/25 12:10:23;;;;;;;4.38;2.15;;;9.30;74.10;;;;;;5036840;28;20029;-76
2023/04/25 12:12:49;;;;;;;1.92;1.40;;;9.30;75.00;;;;;;5053749;28;20402;-75
2023/04/25 12:15:25;;;;;;;1.73;1.00;;;9.20;75.70;;;;;;5053004;28;20032;-77
2023/04/25 12:17:53;;;;;;;1.85;1.20;;;9.20;74.90;;;;;;5035928;28;20049;-75
2023/04/25 12:20:23;;;;;;;1.30;0.90;;;9.20;76.10;;;;;;5053040;28;20056;-75
2023/04/25 12:22:49;;;;;;;1.50;0.55;;;9.30;75.70;;;;;;5052849;28;20031;-76
2023/04/25 12:25:46;;;;;;;1.00;0.90;;;9.30;75.20;;;;;;5053058;28;20083;-77
2023/04/25 12:28:31;;;;;;;1.40;1.30;;;9.40;74.30;;;;;;5052940;28;20029;-77
2023/04/25 12:31:09;;;;;;;1.40;1.02;;;9.40;72.90;;;;;;5052967;28;20485;-77
2023/04/25 12:33:36;;;;;;;1.77;1.35;;;9.20;74.90;;;;;;5053075;28;20036;-76
2023/04/25 12:36:08;;;;;;;1.75;1.40;;;9.10;74.10;;;;;;5052545;28;20156;-78
2023/04/25 12:38:40;;;;;;;1.58;1.20;;;9.10;73.70;;;;;;5052857;28;20048;-74
2023/04/25 12:41:06;;;;;;;2.25;1.83;;;9.00;72.60;;;;;;5036266;28;20090;-76
2023/04/25 12:43:32;;;;;;;1.70;1.60;;;9.00;72.80;;;;;;5054790;28;20036;-79
2023/04/25 12:45:58;;;;;;;2.00;1.75;;;9.00;73.50;;;;;;5053310;28;20036;-76
2023/04/25 12:48:24;;;;;;;2.50;2.30;;;8.80;74.00;;;;;;5055055;28;20299;-80
2023/04/25 12:50:51;;;;;;;2.60;2.30;;;8.80;74.50;;;;;;5053396;28;20083;-77
2023/04/25 12:53:18;;;;;;;2.72;2.00;;;8.70;75.80;;;;;;5053169;28;20506;-79
2023/04/25 12:55:46;;;;;;;2.30;1.95;;;8.70;75.90;;;;;;5054429;28;20048;-78